M I D A S
Marine Information and Data Acquisition System
Tripno 662 of the Zeeleeuw from 2004-03-08 09:01:07 to 2004-03-08 14:46:37
Back to CruiseResearch ActivitiesStationsMapUnderway DataData graphs

EquipmentUnitsComments
TimeDGPSUTC
LatitudeDGPSDM.mWGS84
LongitudeDGPSDM.mWGS84
SpeedMeteo Stationm/sRelative wind speed
DirectionMeteo StationdegRelative wind direction
TemperatureMeteo Stationdeg CelciusAir temperature
PressureMeteo StationPaAtmospheric pressure
HumidityMeteo Station%Relative humidity
Missing or incorrect values are displayed as -999
Metereological data collected by the RV Zeeleeuw from 2004-03-08 09:01:07 to 2004-03-08 14:46:37
Time Latitude Longitude Speed Direction Temperature Pressure Humidity
2004-03-08 09:02 51°13.957 2°55.538 4.1 58 3.9 103290 67
2004-03-08 09:03 51°14.062 2°55.46 6.2 37 3.8 103290 67
2004-03-08 09:04 51°14.181 2°55.365 7.5 59 3.7 103270 67
2004-03-08 09:05 51°14.295 2°55.193 7 52 3.6 103280 69
2004-03-08 09:06 51°14.4 2°54.93 5.3 81 3.4 103290 70
2004-03-08 09:07 51°14.411 2°54.619 1.9 146 3.3 103300 71
2004-03-08 09:08 51°14.345 2°54.388 1.6 240 3.4 103300 71
2004-03-08 09:09 51°14.243 2°54.126 1.9 317 3.6 103300 72
2004-03-08 09:10 51°14.126 2°53.792 1.4 357 3.8 103310 72
2004-03-08 09:11 51°14.043 2°53.438 2 71 3.8 103310 71
2004-03-08 09:12 51°13.939 2°53.071 2.4 53 3.7 103300 71
2004-03-08 09:13 51°13.841 2°52.707 1.8 68 3.6 103300 71
2004-03-08 09:14 51°13.734 2°52.338 2.2 58 3.6 103300 70
2004-03-08 09:15 51°13.628 2°51.964 1.7 61 3.5 103300 70
2004-03-08 09:16 51°13.513 2°51.589 2 75 3.5 103300 71
2004-03-08 09:17 51°13.401 2°51.221 1.6 70 3.5 103300 71
2004-03-08 09:18 51°13.292 2°50.862 1.2 80 3.5 103300 71
2004-03-08 09:19 51°13.182 2°50.501 1.2 34 3.5 103300 71
2004-03-08 09:20 51°13.074 2°50.14 2.5 29 3.6 103300 71
2004-03-08 09:21 51°12.966 2°49.784 1.3 101 3.6 103310 71
2004-03-08 09:22 51°12.853 2°49.431 0.8 55 3.6 103310 70
2004-03-08 09:23 51°12.735 2°49.08 0.5 347 3.6 103300 70
2004-03-08 09:24 51°12.613 2°48.727 0.6 56 3.7 103310 70
2004-03-08 09:25 51°12.493 2°48.383 0.3 69 3.7 103310 70
2004-03-08 09:26 51°12.372 2°48.029 0.5 38 3.8 103320 69
2004-03-08 09:27 51°12.25 2°47.666 0.7 76 3.8 103320 69
2004-03-08 09:28 51°12.133 2°47.31 1.3 355 3.8 103310 69
2004-03-08 09:29 51°12.012 2°46.946 1.1 356 3.8 103320 69
2004-03-08 09:30 51°11.891 2°46.58 1.2 23 3.8 103320 69
2004-03-08 09:31 51°11.767 2°46.205 1.3 11 3.9 103320 69
2004-03-08 09:32 51°11.647 2°45.842 1.3 355 3.9 103320 69
2004-03-08 09:33 51°11.528 2°45.475 0.7 16 3.9 103320 68
2004-03-08 09:34 51°11.412 2°45.108 1.2 357 3.9 103330 67
2004-03-08 09:35 51°11.298 2°44.74 0.9 43 3.9 103330 68
2004-03-08 09:36 51°11.183 2°44.375 0.8 33 3.9 103330 68
2004-03-08 09:37 51°11.082 2°43.992 1.4 34 3.9 103330 68
2004-03-08 09:38 51°10.983 2°43.624 1.3 19 3.9 103330 67
2004-03-08 09:39 51°10.882 2°43.252 1.8 42 3.8 103330 68
2004-03-08 09:40 51°10.783 2°42.883 1 55 3.9 103340 69
2004-03-08 09:41 51°10.681 2°42.508 1.3 37 3.8 103340 69
2004-03-08 09:42 51°10.58 2°42.148 1.3 69 3.8 103340 69
2004-03-08 09:43 51°10.483 2°41.769 2.4 20 3.8 103330 70
2004-03-08 09:44 51°10.387 2°41.406 2 34 3.8 103330 71
2004-03-08 09:45 51°10.286 2°41.04 1.7 40 3.7 103330 70
2004-03-08 09:46 51°10.188 2°40.672 2.1 27 3.7 103340 70
2004-03-08 09:47 51°10.087 2°40.308 1.8 32 3.7 103330 70
2004-03-08 09:48 51°9.989 2°39.941 1.4 49 3.6 103330 69
2004-03-08 09:49 51°9.893 2°39.573 2.3 360 3.6 103330 70
2004-03-08 09:50 51°9.797 2°39.205 2.1 15 3.7 103330 71
2004-03-08 09:51 51°9.699 2°38.832 1.9 11 3.8 103330 70
2004-03-08 09:52 51°9.605 2°38.475 0.9 15 3.7 103340 70
2004-03-08 09:53 51°9.501 2°38.3 3.1 254 3.7 103330 69
2004-03-08 09:54 51°9.468 2°38.266 6.7 268 3.8 103320 71
2004-03-08 09:55 51°9.458 2°38.232 5.8 265 3.8 103330 71
2004-03-08 09:56 51°9.444 2°38.199 7 276 3.9 103330 72
2004-03-08 09:57 51°9.428 2°38.17 7.2 279 3.8 103330 71
2004-03-08 09:58 51°9.41 2°38.145 5.6 270 3.9 103330 72
2004-03-08 09:59 51°9.39 2°38.122 6.5 290 3.8 103330 71
2004-03-08 10:00 51°9.358 2°38.11 5.7 281 3.8 103330 70
2004-03-08 10:01 51°9.262 2°38.037 2.1 213 3.8 103340 70
2004-03-08 10:02 51°9.247 2°37.824 4.7 79 3.8 103340 71
2004-03-08 10:03 51°9.354 2°37.722 9.5 37 3.7 103330 70
2004-03-08 10:04 51°9.499 2°37.735 9.7 37 3.6 103310 71
2004-03-08 10:05 51°9.675 2°37.736 8.5 39 3.4 103310 71
2004-03-08 10:06 51°9.783 2°37.678 6.5 81 3.4 103330 73
2004-03-08 10:07 51°9.828 2°37.585 6.4 90 3.4 103340 72
2004-03-08 10:08 51°9.876 2°37.545 7.3 30 3.4 103340 72
2004-03-08 10:09 51°9.893 2°37.586 6.9 345 3.4 103340 72
2004-03-08 10:10 51°9.876 2°37.666 7.9 341 3.6 103320 72
2004-03-08 10:11 51°9.859 2°37.757 6.6 337 3.7 103320 71
2004-03-08 10:12 51°9.842 2°37.77 6.1 318 3.8 103330 71
2004-03-08 10:13 51°9.824 2°37.759 5.3 311 3.8 103330 70
2004-03-08 10:14 51°9.804 2°37.746 6 306 3.9 103330 71
2004-03-08 10:15 51°9.784 2°37.734 5.9 310 3.9 103340 71
2004-03-08 10:16 51°9.763 2°37.729 6.1 313 3.9 103320 71
2004-03-08 10:17 51°9.741 2°37.733 5.6 43 3.9 103340 70
2004-03-08 10:18 51°9.719 2°37.743 5.2 318 3.9 103330 70
2004-03-08 10:19 51°9.697 2°37.757 6.7 332 4 103330 71
2004-03-08 10:20 51°9.679 2°37.771 6 335 4 103330 70
2004-03-08 10:21 51°9.667 2°37.784 5.6 355 4 103330 70
2004-03-08 10:22 51°9.66 2°37.795 5.8 357 4 103340 69
2004-03-08 10:23 51°9.662 2°37.806 7 20 4 103340 69
2004-03-08 10:24 51°9.671 2°37.808 6.1 41 3.9 103330 69
2004-03-08 10:25 51°9.688 2°37.786 5.9 79 3.7 103340 71
2004-03-08 10:26 51°9.705 2°37.748 5.3 89 3.6 103340 71
2004-03-08 10:27 51°9.725 2°37.703 4.9 78 3.6 103340 71
2004-03-08 10:28 51°9.741 2°37.653 5.4 102 3.6 103340 71
2004-03-08 10:29 51°9.747 2°37.602 4.6 110 3.6 103340 72
2004-03-08 10:30 51°9.746 2°37.554 4.6 119 3.7 103340 72
2004-03-08 10:31 51°9.742 2°37.51 4.9 121 3.8 103340 73
2004-03-08 10:32 51°9.736 2°37.471 5.2 128 3.8 103340 72
2004-03-08 10:33 51°9.728 2°37.434 5.7 121 3.7 103340 72
2004-03-08 10:34 51°9.722 2°37.387 3.9 144 3.7 103350 72
2004-03-08 10:35 51°9.701 2°37.297 2.7 206 3.8 103340 72
2004-03-08 10:36 51°9.654 2°37.231 3.4 241 3.9 103340 72
2004-03-08 10:37 51°9.6 2°37.192 3.7 246 3.8 103340 71
2004-03-08 10:38 51°9.541 2°37.14 3.3 223 3.8 103340 71
2004-03-08 10:39 51°9.494 2°37.065 2.5 193 3.9 103340 72
2004-03-08 10:40 51°9.462 2°36.985 3.2 170 3.9 103340 71
2004-03-08 10:41 51°9.438 2°36.902 4.6 158 3.9 103340 70
2004-03-08 10:42 51°9.422 2°36.824 3.6 166 3.8 103340 70
2004-03-08 10:43 51°9.401 2°36.748 2 208 3.8 103350 71
2004-03-08 10:44 51°9.374 2°36.68 2.3 198 4.1 103350 72
2004-03-08 10:45 51°9.35 2°36.611 4.2 159 4.3 103350 70
2004-03-08 10:46 51°9.33 2°36.54 4 157 4.1 103340 69
2004-03-08 10:47 51°9.309 2°36.466 4.5 157 3.9 103350 70
2004-03-08 10:48 51°9.289 2°36.392 4 166 3.8 103350 70
2004-03-08 10:49 51°9.267 2°36.322 1.9 171 3.8 103340 70
2004-03-08 10:50 51°9.243 2°36.251 3.9 166 3.8 103340 70
2004-03-08 10:51 51°9.219 2°36.181 3.7 168 3.8 103340 71
2004-03-08 10:52 51°9.197 2°36.109 3.3 167 3.7 103340 71
2004-03-08 10:53 51°9.174 2°36.037 3.5 169 3.8 103340 72
2004-03-08 10:54 51°9.15 2°35.967 3.2 185 3.8 103340 72
2004-03-08 10:55 51°9.126 2°35.896 3.1 174 4.1 103340 72
2004-03-08 10:56 51°9.105 2°35.827 3.1 183 4.1 103340 70
2004-03-08 10:57 51°9.083 2°35.759 3.6 174 4.3 103340 71
2004-03-08 10:58 51°9.061 2°35.69 4.6 166 4.2 103340 69
2004-03-08 10:59 51°9.04 2°35.619 3.6 166 4.1 103330 69
2004-03-08 11:00 51°9.018 2°35.552 2.6 169 4 103330 70
2004-03-08 11:01 51°8.994 2°35.486 1.9 170 4.1 103330 73
2004-03-08 11:02 51°8.97 2°35.42 2.8 185 4.5 103330 72
2004-03-08 11:03 51°8.944 2°35.355 2 182 4.7 103330 70
2004-03-08 11:04 51°8.921 2°35.293 3.2 162 4.9 103330 69
2004-03-08 11:05 51°8.902 2°35.23 3.7 175 4.7 103330 69
2004-03-08 11:06 51°8.888 2°35.17 4.3 155 4.4 103330 69
2004-03-08 11:07 51°8.879 2°35.114 4.2 147 4.1 103340 69
2004-03-08 11:08 51°8.874 2°35.059 4.1 135 4 103330 71
2004-03-08 11:09 51°8.872 2°35.011 5.3 131 4 103330 72
2004-03-08 11:10 51°8.898 2°34.926 6.5 88 3.9 103330 71
2004-03-08 11:11 51°8.933 2°34.877 5.8 86 3.9 103330 72
2004-03-08 11:12 51°8.958 2°34.854 5.6 82 3.8 103330 72
2004-03-08 11:13 51°8.974 2°34.84 5.3 80 3.8 103330 72
2004-03-08 11:14 51°8.997 2°34.836 6.4 33 3.8 103330 73
2004-03-08 11:15 51°9.021 2°34.887 6.5 338 3.8 103320 72
2004-03-08 11:16 51°8.993 2°34.95 6.6 277 3.9 103320 72
2004-03-08 11:17 51°8.945 2°34.948 3.4 243 3.9 103330 72
2004-03-08 11:18 51°8.899 2°34.911 2.8 210 3.9 103340 73
2004-03-08 11:19 51°8.863 2°34.851 1.7 178 4 103340 73
2004-03-08 11:20 51°8.824 2°34.79 2.9 204 4.1 103340 72
2004-03-08 11:21 51°8.777 2°34.739 3.2 215 4 103330 71
2004-03-08 11:22 51°8.733 2°34.683 1.7 175 4 103340 71
2004-03-08 11:23 51°8.709 2°34.611 3.2 152 4 103340 71
2004-03-08 11:24 51°8.687 2°34.536 2.7 170 4 103340 72
2004-03-08 11:25 51°8.663 2°34.464 1.9 187 4 103330 71
2004-03-08 11:26 51°8.633 2°34.394 2.6 207 4.3 103330 72
2004-03-08 11:27 51°8.602 2°34.326 1.9 189 4.2 103340 70
2004-03-08 11:28 51°8.575 2°34.255 2 207 4.5 103340 71
2004-03-08 11:29 51°8.549 2°34.185 1.4 178 4.7 103340 69
2004-03-08 11:30 51°8.521 2°34.119 1.4 185 4.9 103340 69
2004-03-08 11:31 51°8.496 2°34.058 2 196 5.1 103340 68
2004-03-08 11:32 51°8.47 2°33.992 1.4 184 5.2 103340 67
2004-03-08 11:33 51°8.444 2°33.924 1.9 203 5.3 103340 67
2004-03-08 11:34 51°8.416 2°33.854 2.7 163 5.3 103340 67
2004-03-08 11:35 51°8.388 2°33.786 2.3 162 5.1 103330 66
2004-03-08 11:36 51°8.361 2°33.719 3.2 150 4.8 103330 67
2004-03-08 11:37 51°8.333 2°33.652 2.6 158 4.6 103340 68
2004-03-08 11:38 51°8.306 2°33.586 2.6 164 4.4 103330 69
2004-03-08 11:39 51°8.283 2°33.522 2.6 171 4.3 103330 70
2004-03-08 11:40 51°8.259 2°33.456 1.7 185 4.2 103330 70
2004-03-08 11:41 51°8.233 2°33.394 3.4 177 4.1 103320 71
2004-03-08 11:42 51°8.207 2°33.331 2.9 171 4 103330 71
2004-03-08 11:43 51°8.183 2°33.268 1.9 165 4.1 103330 72
2004-03-08 11:44 51°8.16 2°33.202 2.6 165 4.1 103320 72
2004-03-08 11:45 51°8.135 2°33.134 1.6 164 4.1 103320 73
2004-03-08 11:46 51°8.112 2°33.073 2.9 160 4.1 103320 73
2004-03-08 11:47 51°8.088 2°33.008 2.5 151 4 103330 72
2004-03-08 11:48 51°8.065 2°32.942 3.3 156 4 103320 73
2004-03-08 11:49 51°8.043 2°32.877 3.1 159 4 103330 72
2004-03-08 11:50 51°8.021 2°32.815 3.1 136 3.9 103320 72
2004-03-08 11:51 51°8.005 2°32.751 2.9 135 3.9 103320 72
2004-03-08 11:52 51°7.999 2°32.681 2.9 143 3.9 103330 72
2004-03-08 11:53 51°7.996 2°32.622 3.5 135 4 103330 73
2004-03-08 11:54 51°7.996 2°32.584 3.7 148 4 103320 73
2004-03-08 11:55 51°8 2°32.561 4.2 144 4 103320 73
2004-03-08 11:56 51°8.005 2°32.549 4.7 139 4 103330 72
2004-03-08 11:57 51°8.014 2°32.545 4.2 129 4 103330 73
2004-03-08 11:58 51°8.024 2°32.541 3.9 134 4 103330 73
2004-03-08 11:59 51°7.991 2°32.527 4.1 268 4 103320 74
2004-03-08 12:00 51°7.958 2°32.648 7.1 337 4.2 103310 74
2004-03-08 12:01 51°7.998 2°32.828 8.7 347 4.2 103310 73
2004-03-08 12:02 51°7.991 2°33.077 6.6 304 4.3 103300 72
2004-03-08 12:03 51°7.928 2°33.139 1.7 195 4.2 103320 72
2004-03-08 12:04 51°7.891 2°33.084 2 161 4.3 103330 73
2004-03-08 12:05 51°7.863 2°33.016 2.5 149 4.3 103330 73
2004-03-08 12:06 51°7.842 2°32.942 2.8 163 4.2 103330 73
2004-03-08 12:07 51°7.818 2°32.869 2.9 169 4.1 103320 72
2004-03-08 12:08 51°7.791 2°32.804 3.1 170 4.1 103320 72
2004-03-08 12:09 51°7.767 2°32.74 2.8 157 4 103320 72
2004-03-08 12:10 51°7.743 2°32.673 3.1 171 4 103320 73
2004-03-08 12:11 51°7.72 2°32.606 2.7 153 4 103320 73
2004-03-08 12:12 51°7.701 2°32.53 2.9 151 4 103320 73
2004-03-08 12:13 51°7.684 2°32.452 3.3 140 4 103320 73
2004-03-08 12:14 51°7.668 2°32.376 3.6 153 4 103320 73
2004-03-08 12:15 51°7.65 2°32.302 3.2 158 4 103320 73
2004-03-08 12:16 51°7.632 2°32.23 3.1 163 4 103320 73
2004-03-08 12:17 51°7.609 2°32.158 3.1 141 4 103320 73
2004-03-08 12:18 51°7.588 2°32.093 3.4 151 4 103320 74
2004-03-08 12:19 51°7.568 2°32.032 3.2 148 4 103320 73
2004-03-08 12:20 51°7.552 2°31.975 3.2 145 4 103320 74
2004-03-08 12:21 51°7.536 2°31.918 3.1 155 4 103320 74
2004-03-08 12:22 51°7.519 2°31.863 3.3 157 4 103320 74
2004-03-08 12:23 51°7.502 2°31.805 3.1 156 4 103320 73
2004-03-08 12:24 51°7.485 2°31.749 3.3 149 4 103320 74
2004-03-08 12:25 51°7.466 2°31.691 3.5 136 4 103320 74
2004-03-08 12:26 51°7.453 2°31.63 2.7 144 4 103320 74
2004-03-08 12:27 51°7.439 2°31.568 2.6 151 4 103320 74
2004-03-08 12:28 51°7.42 2°31.507 2.5 134 4.1 103320 75
2004-03-08 12:29 51°7.412 2°31.445 4.4 118 4.1 103320 76
2004-03-08 12:30 51°7.433 2°31.383 5.3 88 4.1 103320 75
2004-03-08 12:31 51°7.484 2°31.34 5.3 70 4.1 103320 74
2004-03-08 12:32 51°7.551 2°31.349 7.2 34 4 103310 75
2004-03-08 12:33 51°7.61 2°31.396 5.2 26 3.9 103300 74
2004-03-08 12:34 51°7.649 2°31.451 5.3 15 4 103300 75
2004-03-08 12:35 51°7.683 2°31.531 5.5 346 4.1 103310 75
2004-03-08 12:36 51°7.718 2°31.642 6.1 350 4.2 103300 75
2004-03-08 12:37 51°7.749 2°31.757 6.5 330 4.3 103300 75
2004-03-08 12:38 51°7.759 2°31.873 5.7 316 4.3 103300 74
2004-03-08 12:39 51°7.769 2°31.984 6.5 320 4.3 103310 74
2004-03-08 12:40 51°7.787 2°32.09 6 329 4.4 103310 74
2004-03-08 12:41 51°7.806 2°32.188 6.4 329 4.4 103310 74
2004-03-08 12:42 51°7.829 2°32.282 6.4 333 4.5 103310 74
2004-03-08 12:43 51°7.857 2°32.375 6.1 338 4.5 103310 73
2004-03-08 12:44 51°7.885 2°32.457 6.8 346 4.5 103310 74
2004-03-08 12:45 51°7.917 2°32.542 6 347 4.5 103310 73
2004-03-08 12:46 51°7.949 2°32.625 6.1 348 4.5 103300 73
2004-03-08 12:47 51°7.978 2°32.709 5.4 344 4.5 103310 73
2004-03-08 12:48 51°8.008 2°32.795 5.4 336 4.6 103310 74
2004-03-08 12:49 51°8.035 2°32.882 5.6 342 4.6 103300 74
2004-03-08 12:50 51°8.062 2°32.972 6.2 337 4.6 103300 74
2004-03-08 12:51 51°8.089 2°33.062 6.4 343 4.6 103300 74
2004-03-08 12:52 51°8.118 2°33.148 6 339 4.6 103300 73
2004-03-08 12:53 51°8.149 2°33.238 6.3 350 4.7 103300 74
2004-03-08 12:54 51°8.177 2°33.323 6.5 344 4.7 103300 73
2004-03-08 12:55 51°8.205 2°33.41 6 348 4.7 103300 73
2004-03-08 12:56 51°8.235 2°33.494 6.5 345 4.7 103300 73
2004-03-08 12:57 51°8.266 2°33.579 7 346 4.7 103300 74
2004-03-08 12:58 51°8.298 2°33.666 6.5 344 4.7 103300 74
2004-03-08 12:59 51°8.331 2°33.756 6.7 345 4.7 103300 74
2004-03-08 13:00 51°8.362 2°33.841 6.3 345 4.7 103290 73
2004-03-08 13:01 51°8.39 2°33.919 6.4 345 4.7 103300 73
2004-03-08 13:02 51°8.423 2°34 6.6 345 4.7 103300 73
2004-03-08 13:03 51°8.461 2°34.078 6.3 358 4.7 103300 73
2004-03-08 13:04 51°8.505 2°34.161 6.7 357 4.7 103310 73
2004-03-08 13:05 51°8.545 2°34.258 6.9 341 4.6 103290 73
2004-03-08 13:06 51°8.574 2°34.343 6.1 341 4.7 103300 73
2004-03-08 13:07 51°8.594 2°34.412 5.6 332 4.7 103300 72
2004-03-08 13:08 51°8.611 2°34.476 5.4 326 4.7 103300 72
2004-03-08 13:09 51°8.64 2°34.56 6.9 9 4.7 103300 73
2004-03-08 13:10 51°8.701 2°34.686 7 331 4.7 103300 73
2004-03-08 13:11 51°8.719 2°34.8 5.7 314 4.6 103300 74
2004-03-08 13:12 51°8.725 2°34.893 5.6 297 4.6 103300 75
2004-03-08 13:13 51°8.725 2°34.967 6.5 273 4.6 103300 75
2004-03-08 13:14 51°8.725 2°35.036 6 267 4.6 103300 75
2004-03-08 13:15 51°8.724 2°35.096 5.5 268 4.5 103300 74
2004-03-08 13:16 51°8.722 2°35.156 3.5 254 4.5 103300 75
2004-03-08 13:17 51°8.706 2°35.209 3.2 213 4.4 103310 75
2004-03-08 13:18 51°8.674 2°35.158 3.4 101 4.5 103310 75
2004-03-08 13:19 51°8.66 2°34.971 4.2 72 4.4 103310 75
2004-03-08 13:20 51°8.644 2°34.742 4.5 82 4.4 103300 76
2004-03-08 13:21 51°8.622 2°34.539 3.7 93 4.3 103300 75
2004-03-08 13:22 51°8.613 2°34.413 3.7 119 4.4 103310 76
2004-03-08 13:23 51°8.611 2°34.342 3.7 137 4.4 103300 76
2004-03-08 13:24 51°8.62 2°34.317 4.4 126 4.4 103310 76
2004-03-08 13:25 51°8.634 2°34.305 4 119 4.4 103310 76
2004-03-08 13:26 51°8.65 2°34.3 4.3 114 4.5 103300 76
2004-03-08 13:27 51°8.671 2°34.306 3.6 102 4.5 103300 77
2004-03-08 13:28 51°8.692 2°34.318 3.8 97 4.5 103300 76
2004-03-08 13:29 51°8.715 2°34.329 5 110 4.6 103290 76
2004-03-08 13:30 51°8.743 2°34.334 5 110 4.6 103300 76
2004-03-08 13:31 51°8.77 2°34.334 5 117 4.5 103300 75
2004-03-08 13:32 51°8.793 2°34.332 4.6 132 4.5 103290 76
2004-03-08 13:33 51°8.808 2°34.333 4.5 136 4.5 103300 76
2004-03-08 13:34 51°8.814 2°34.34 4.3 159 4.5 103300 75
2004-03-08 13:35 51°8.814 2°34.356 4.1 203 4.6 103290 74
2004-03-08 13:36 51°8.809 2°34.386 6 231 4.7 103290 73
2004-03-08 13:37 51°8.804 2°34.433 4.4 254 4.7 103290 73
2004-03-08 13:38 51°8.799 2°34.499 6.3 296 4.7 103280 73
2004-03-08 13:39 51°8.797 2°34.724 11.1 345 4.7 103270 74
2004-03-08 13:40 51°8.886 2°35.074 12.3 350 4.8 103270 74
2004-03-08 13:41 51°8.992 2°35.464 12.8 351 5 103260 74
2004-03-08 13:42 51°9.09 2°35.838 11.9 351 5 103260 73
2004-03-08 13:43 51°9.186 2°36.212 11.9 350 5 103270 73
2004-03-08 13:44 51°9.284 2°36.6 12.3 350 5 103270 73
2004-03-08 13:45 51°9.379 2°36.973 12.5 347 5 103270 73
2004-03-08 13:46 51°9.477 2°37.361 11.7 349 5 103270 74
2004-03-08 13:47 51°9.574 2°37.748 11 352 5 103270 73
2004-03-08 13:48 51°9.665 2°38.125 11.8 353 5.1 103260 74
2004-03-08 13:49 51°9.758 2°38.514 10.7 355 5.1 103270 73
2004-03-08 13:50 51°9.849 2°38.888 11.3 354 5 103270 74
2004-03-08 13:51 51°9.943 2°39.275 10.3 358 5 103260 74
2004-03-08 13:52 51°10.034 2°39.651 11.5 352 4.9 103260 74
2004-03-08 13:53 51°10.124 2°40.036 11.9 355 5 103270 74
2004-03-08 13:54 51°10.212 2°40.415 11.6 357 5 103260 73
2004-03-08 13:55 51°10.318 2°40.802 12.1 356 5 103260 73
2004-03-08 13:56 51°10.419 2°41.168 12.9 354 5 103260 73
2004-03-08 13:57 51°10.518 2°41.539 11.3 357 5 103260 73
2004-03-08 13:58 51°10.614 2°41.909 10.2 355 4.9 103260 73
2004-03-08 13:59 51°10.709 2°42.279 10.6 354 5 103250 73
2004-03-08 14:00 51°10.803 2°42.643 11.2 354 5 103260 73
2004-03-08 14:01 51°10.902 2°43.023 12.2 348 5 103260 73
2004-03-08 14:02 51°10.994 2°43.385 10.4 354 4.9 103260 74
2004-03-08 14:03 51°11.091 2°43.761 11.5 350 5 103260 74
2004-03-08 14:04 51°11.187 2°44.131 10.8 349 5 103260 75
2004-03-08 14:05 51°11.282 2°44.503 10.5 352 5 103260 74
2004-03-08 14:06 51°11.378 2°44.876 11 349 5 103260 75
2004-03-08 14:07 51°11.473 2°45.242 11.7 347 5 103260 75
2004-03-08 14:08 51°11.574 2°45.605 10.8 352 5 103260 75
2004-03-08 14:09 51°11.687 2°45.965 11.2 352 5 103250 75
2004-03-08 14:10 51°11.805 2°46.338 12.3 349 5.1 103260 75
2004-03-08 14:11 51°11.918 2°46.693 11.1 350 5.1 103250 74
2004-03-08 14:12 51°12.03 2°47.048 11.8 347 5.1 103250 74
2004-03-08 14:13 51°12.144 2°47.411 12 351 5.1 103250 73
2004-03-08 14:14 51°12.263 2°47.785 11 349 5.1 103250 74
2004-03-08 14:15 51°12.378 2°48.147 11.3 346 5.1 103260 74
2004-03-08 14:16 51°12.494 2°48.507 11.2 352 5.1 103260 73
2004-03-08 14:17 51°12.61 2°48.854 11.3 348 5.1 103260 74
2004-03-08 14:18 51°12.736 2°49.221 10.8 352 5.1 103260 74
2004-03-08 14:19 51°12.862 2°49.577 11 351 5.1 103250 74
2004-03-08 14:20 51°12.984 2°49.931 11.3 348 5.1 103260 74
2004-03-08 14:21 51°13.11 2°50.296 10.9 349 5.1 103250 74
2004-03-08 14:22 51°13.23 2°50.644 10.6 345 5.1 103240 74
2004-03-08 14:23 51°13.355 2°51 10.7 353 5.1 103250 74
2004-03-08 14:24 51°13.484 2°51.364 10.6 350 5.1 103250 74
2004-03-08 14:25 51°13.605 2°51.707 11.3 351 5.1 103260 74
2004-03-08 14:26 51°13.733 2°52.073 11 350 5.1 103250 74
2004-03-08 14:27 51°13.838 2°52.372 8.6 345 5.1 103250 75
2004-03-08 14:28 51°13.951 2°52.695 9.9 354 5.1 103250 74
2004-03-08 14:29 51°14.066 2°53.065 10.9 344 5.1 103260 74
2004-03-08 14:30 51°14.149 2°53.438 10.9 347 5.1 103260 75
2004-03-08 14:31 51°14.221 2°53.824 10.1 341 5.1 103260 75
2004-03-08 14:32 51°14.28 2°54.224 10.4 338 5.1 103250 75
2004-03-08 14:33 51°14.326 2°54.606 10.1 340 5.1 103250 75
2004-03-08 14:34 51°14.356 2°54.976 7.9 327 5.1 103250 75
2004-03-08 14:35 51°14.267 2°55.25 3.7 325 5.1 103270 74
2004-03-08 14:36 51°14.155 2°55.397 2 314 5.1 103270 75
2004-03-08 14:37 51°14.046 2°55.479 2.2 308 5.2 103270 75
2004-03-08 14:38 51°13.94 2°55.556 1.3 244 5.2 103270 75
2004-03-08 14:39 51°13.836 2°55.63 0.7 229 5.2 103270 74
2004-03-08 14:40 51°13.75 2°55.721 2 288 5.2 103270 74
2004-03-08 14:41 51°13.688 2°55.839 2.6 317 5.3 103270 74
2004-03-08 14:42 51°13.645 2°55.942 2 287 5.4 103270 74
2004-03-08 14:43 51°13.612 2°56.033 1.7 301 5.4 103270 73
2004-03-08 14:44 51°13.594 2°56.103 2.3 280 5.5 103270 72
2004-03-08 14:45 51°13.593 2°56.108 1.1 252 5.6 103270 72
2004-03-08 14:46 51°13.593 2°56.108 1.9 256 5.7 103270 72